sensor_id;sensor_type;location;lat;lon;timestamp;temperature;humidity
13998;DHT22;7074;51.508;7.018;2022-09-25T00:01:20;15.30;99.90
13998;DHT22;7074;51.508;7.018;2022-09-25T00:03:49;15.30;99.90
13998;DHT22;7074;51.508;7.018;2022-09-25T00:06:19;15.40;99.90
13998;DHT22;7074;51.508;7.018;2022-09-25T00:08:47;15.40;99.90
13998;DHT22;7074;51.508;7.018;2022-09-25T00:11:17;15.40;99.90
13998;DHT22;7074;51.508;7.018;2022-09-25T00:13:46;15.50;99.90
13998;DHT22;7074;51.508;7.018;2022-09-25T00:16:16;15.50;99.90
13998;DHT22;7074;51.508;7.018;2022-09-25T00:18:45;15.60;99.90
13998;DHT22;7074;51.508;7.018;2022-09-25T00:21:32;15.60;99.90
13998;DHT22;7074;51.508;7.018;2022-09-25T00:24:02;15.60;99.90
13998;DHT22;7074;51.508;7.018;2022-09-25T00:26:33;15.60;99.90
13998;DHT22;7074;51.508;7.018;2022-09-25T00:29:01;15.70;99.90
13998;DHT22;7074;51.508;7.018;2022-09-25T00:31:30;15.70;99.90
13998;DHT22;7074;51.508;7.018;2022-09-25T00:33:59;15.50;99.90
13998;DHT22;7074;51.508;7.018;2022-09-25T00:36:28;15.50;99.90
13998;DHT22;7074;51.508;7.018;2022-09-25T00:38:57;15.40;99.90
13998;DHT22;7074;51.508;7.018;2022-09-25T00:41:27;15.40;99.90
13998;DHT22;7074;51.508;7.018;2022-09-25T00:43:58;15.30;99.90
13998;DHT22;7074;51.508;7.018;2022-09-25T00:46:29;15.30;99.90
13998;DHT22;7074;51.508;7.018;2022-09-25T00:49:01;15.40;99.90
13998;DHT22;7074;51.508;7.018;2022-09-25T00:51:33;15.20;99.90
13998;DHT22;7074;51.508;7.018;2022-09-25T00:54:08;15.10;99.90
13998;DHT22;7074;51.508;7.018;2022-09-25T00:56:39;15.10;99.90
13998;DHT22;7074;51.508;7.018;2022-09-25T00:59:11;15.20;99.90
13998;DHT22;7074;51.508;7.018;2022-09-25T01:01:40;15.10;99.90
13998;DHT22;7074;51.508;7.018;2022-09-25T01:04:08;15.20;99.90
13998;DHT22;7074;51.508;7.018;2022-09-25T01:06:38;15.20;99.90
13998;DHT22;7074;51.508;7.018;2022-09-25T01:09:08;15.20;99.90
13998;DHT22;7074;51.508;7.018;2022-09-25T01:11:36;15.10;99.90
13998;DHT22;7074;51.508;7.018;2022-09-25T01:14:05;15.20;99.90
13998;DHT22;7074;51.508;7.018;2022-09-25T01:16:39;15.10;99.90
13998;DHT22;7074;51.508;7.018;2022-09-25T01:19:19;15.10;99.90
13998;DHT22;7074;51.508;7.018;2022-09-25T01:21:52;15.20;99.90
13998;DHT22;7074;51.508;7.018;2022-09-25T01:24:42;15.30;99.90
13998;DHT22;7074;51.508;7.018;2022-09-25T01:27:32;15.40;99.90
13998;DHT22;7074;51.508;7.018;2022-09-25T01:30:06;15.30;99.90
13998;DHT22;7074;51.508;7.018;2022-09-25T01:32:43;15.20;99.90
13998;DHT22;7074;51.508;7.018;2022-09-25T01:35:15;15.10;99.90
13998;DHT22;7074;51.508;7.018;2022-09-25T01:37:52;15.00;99.90
13998;DHT22;7074;51.508;7.018;2022-09-25T01:40:25;14.90;99.90
13998;DHT22;7074;51.508;7.018;2022-09-25T01:43:00;14.90;99.90
13998;DHT22;7074;51.508;7.018;2022-09-25T01:45:37;15.10;99.90
13998;DHT22;7074;51.508;7.018;2022-09-25T01:48:09;15.10;99.90
13998;DHT22;7074;51.508;7.018;2022-09-25T01:50:42;15.20;99.90
13998;DHT22;7074;51.508;7.018;2022-09-25T01:53:15;15.20;99.90
13998;DHT22;7074;51.508;7.018;2022-09-25T01:55:49;15.30;99.90
13998;DHT22;7074;51.508;7.018;2022-09-25T01:58:23;15.30;99.90
13998;DHT22;7074;51.508;7.018;2022-09-25T02:00:58;15.30;99.90
13998;DHT22;7074;51.508;7.018;2022-09-25T02:03:31;15.30;99.90
13998;DHT22;7074;51.508;7.018;2022-09-25T02:06:05;15.10;99.90
13998;DHT22;7074;51.508;7.018;2022-09-25T02:08:39;15.20;99.90
13998;DHT22;7074;51.508;7.018;2022-09-25T02:11:10;15.20;99.90
13998;DHT22;7074;51.508;7.018;2022-09-25T02:13:44;15.10;99.90
13998;DHT22;7074;51.508;7.018;2022-09-25T02:16:18;15.20;99.90
13998;DHT22;7074;51.508;7.018;2022-09-25T02:18:48;15.30;99.90
13998;DHT22;7074;51.508;7.018;2022-09-25T02:21:42;15.40;99.90
13998;DHT22;7074;51.508;7.018;2022-09-25T02:24:18;15.10;99.90
13998;DHT22;7074;51.508;7.018;2022-09-25T02:26:49;14.90;99.90
13998;DHT22;7074;51.508;7.018;2022-09-25T02:29:17;14.90;99.90
13998;DHT22;7074;51.508;7.018;2022-09-25T02:31:50;15.00;99.90
13998;DHT22;7074;51.508;7.018;2022-09-25T02:34:20;15.00;99.90
13998;DHT22;7074;51.508;7.018;2022-09-25T02:36:49;14.90;99.90
13998;DHT22;7074;51.508;7.018;2022-09-25T02:39:19;15.00;99.90
13998;DHT22;7074;51.508;7.018;2022-09-25T02:42:04;15.10;99.90
13998;DHT22;7074;51.508;7.018;2022-09-25T02:44:46;15.20;99.90
13998;DHT22;7074;51.508;7.018;2022-09-25T02:47:26;15.10;99.90
13998;DHT22;7074;51.508;7.018;2022-09-25T02:50:03;15.00;99.90
13998;DHT22;7074;51.508;7.018;2022-09-25T02:52:41;14.90;99.90
13998;DHT22;7074;51.508;7.018;2022-09-25T02:55:16;15.00;99.90
13998;DHT22;7074;51.508;7.018;2022-09-25T02:57:50;15.20;99.90
13998;DHT22;7074;51.508;7.018;2022-09-25T03:00:20;15.20;99.90
13998;DHT22;7074;51.508;7.018;2022-09-25T03:02:52;15.20;99.90
13998;DHT22;7074;51.508;7.018;2022-09-25T03:05:25;15.20;99.90
13998;DHT22;7074;51.508;7.018;2022-09-25T03:07:53;15.30;99.90
13998;DHT22;7074;51.508;7.018;2022-09-25T03:10:41;15.20;99.90
13998;DHT22;7074;51.508;7.018;2022-09-25T03:13:16;15.30;99.90
13998;DHT22;7074;51.508;7.018;2022-09-25T03:15:47;15.20;99.90
13998;DHT22;7074;51.508;7.018;2022-09-25T03:18:20;15.20;99.90
13998;DHT22;7074;51.508;7.018;2022-09-25T03:20:50;15.20;99.90
13998;DHT22;7074;51.508;7.018;2022-09-25T03:23:18;15.20;99.90
13998;DHT22;7074;51.508;7.018;2022-09-25T03:25:46;15.20;99.90
13998;DHT22;7074;51.508;7.018;2022-09-25T03:28:15;15.10;99.90
13998;DHT22;7074;51.508;7.018;2022-09-25T03:30:55;15.10;99.90
13998;DHT22;7074;51.508;7.018;2022-09-25T03:33:26;15.10;99.90
13998;DHT22;7074;51.508;7.018;2022-09-25T03:36:06;15.20;99.90
13998;DHT22;7074;51.508;7.018;2022-09-25T03:38:36;15.20;99.90
13998;DHT22;7074;51.508;7.018;2022-09-25T03:41:05;15.20;99.90
13998;DHT22;7074;51.508;7.018;2022-09-25T03:43:34;15.10;99.90
13998;DHT22;7074;51.508;7.018;2022-09-25T03:46:03;15.10;99.90
13998;DHT22;7074;51.508;7.018;2022-09-25T03:48:33;15.10;99.90
13998;DHT22;7074;51.508;7.018;2022-09-25T03:51:01;15.10;99.90
13998;DHT22;7074;51.508;7.018;2022-09-25T03:53:30;15.10;99.90
13998;DHT22;7074;51.508;7.018;2022-09-25T03:55:59;15.00;99.90
13998;DHT22;7074;51.508;7.018;2022-09-25T03:58:27;15.00;99.90
13998;DHT22;7074;51.508;7.018;2022-09-25T04:00:56;14.90;99.90
13998;DHT22;7074;51.508;7.018;2022-09-25T04:03:25;15.00;99.90
13998;DHT22;7074;51.508;7.018;2022-09-25T04:05:56;15.00;99.90
13998;DHT22;7074;51.508;7.018;2022-09-25T04:08:26;15.10;99.90
13998;DHT22;7074;51.508;7.018;2022-09-25T04:10:55;15.00;99.90
13998;DHT22;7074;51.508;7.018;2022-09-25T04:13:25;14.90;99.90
13998;DHT22;7074;51.508;7.018;2022-09-25T04:15:55;14.90;99.90
13998;DHT22;7074;51.508;7.018;2022-09-25T04:18:23;14.90;99.90
13998;DHT22;7074;51.508;7.018;2022-09-25T04:20:52;15.00;99.90
13998;DHT22;7074;51.508;7.018;2022-09-25T04:23:22;15.00;99.90
13998;DHT22;7074;51.508;7.018;2022-09-25T04:25:50;14.90;99.90
13998;DHT22;7074;51.508;7.018;2022-09-25T04:28:18;15.00;99.90
13998;DHT22;7074;51.508;7.018;2022-09-25T04:30:47;15.00;99.90
13998;DHT22;7074;51.508;7.018;2022-09-25T04:33:16;15.00;99.90
13998;DHT22;7074;51.508;7.018;2022-09-25T04:36:01;15.00;99.90
13998;DHT22;7074;51.508;7.018;2022-09-25T04:38:31;15.10;99.90
13998;DHT22;7074;51.508;7.018;2022-09-25T04:40:59;15.10;99.90
13998;DHT22;7074;51.508;7.018;2022-09-25T04:43:27;15.00;99.90
13998;DHT22;7074;51.508;7.018;2022-09-25T04:46:00;14.90;99.90
13998;DHT22;7074;51.508;7.018;2022-09-25T04:48:28;14.90;99.90
13998;DHT22;7074;51.508;7.018;2022-09-25T04:50:56;14.90;99.90
13998;DHT22;7074;51.508;7.018;2022-09-25T04:53:25;14.90;99.90
13998;DHT22;7074;51.508;7.018;2022-09-25T04:55:59;14.90;99.90
13998;DHT22;7074;51.508;7.018;2022-09-25T04:58:27;14.90;99.90
13998;DHT22;7074;51.508;7.018;2022-09-25T05:01:00;14.90;99.90
13998;DHT22;7074;51.508;7.018;2022-09-25T05:03:27;14.80;99.90
13998;DHT22;7074;51.508;7.018;2022-09-25T05:05:56;14.90;99.90
13998;DHT22;7074;51.508;7.018;2022-09-25T05:08:25;14.90;99.90
13998;DHT22;7074;51.508;7.018;2022-09-25T05:10:54;14.80;99.90
13998;DHT22;7074;51.508;7.018;2022-09-25T05:13:22;14.80;99.90
13998;DHT22;7074;51.508;7.018;2022-09-25T05:15:51;14.80;99.90
13998;DHT22;7074;51.508;7.018;2022-09-25T05:18:22;14.70;99.90
13998;DHT22;7074;51.508;7.018;2022-09-25T05:20:50;14.70;99.90
13998;DHT22;7074;51.508;7.018;2022-09-25T05:23:19;14.70;99.90
13998;DHT22;7074;51.508;7.018;2022-09-25T05:25:52;14.60;99.90
13998;DHT22;7074;51.508;7.018;2022-09-25T05:28:22;14.60;99.90
13998;DHT22;7074;51.508;7.018;2022-09-25T05:30:50;14.60;99.90
13998;DHT22;7074;51.508;7.018;2022-09-25T05:33:18;14.50;99.90
13998;DHT22;7074;51.508;7.018;2022-09-25T05:35:46;14.40;99.90
13998;DHT22;7074;51.508;7.018;2022-09-25T05:38:15;14.40;99.90
13998;DHT22;7074;51.508;7.018;2022-09-25T05:40:43;14.30;99.90
13998;DHT22;7074;51.508;7.018;2022-09-25T05:43:11;14.30;99.90
13998;DHT22;7074;51.508;7.018;2022-09-25T05:45:40;14.30;99.90
13998;DHT22;7074;51.508;7.018;2022-09-25T05:48:09;14.20;99.90
13998;DHT22;7074;51.508;7.018;2022-09-25T05:50:37;14.20;99.90
13998;DHT22;7074;51.508;7.018;2022-09-25T05:53:05;14.20;99.90
13998;DHT22;7074;51.508;7.018;2022-09-25T05:55:34;14.30;99.90
13998;DHT22;7074;51.508;7.018;2022-09-25T05:58:02;14.20;99.90
13998;DHT22;7074;51.508;7.018;2022-09-25T06:00:31;14.20;99.90
13998;DHT22;7074;51.508;7.018;2022-09-25T06:03:01;14.10;99.90
13998;DHT22;7074;51.508;7.018;2022-09-25T06:05:29;14.10;99.90
13998;DHT22;7074;51.508;7.018;2022-09-25T06:07:57;14.00;99.90
13998;DHT22;7074;51.508;7.018;2022-09-25T06:10:25;14.00;99.90
13998;DHT22;7074;51.508;7.018;2022-09-25T06:12:55;14.00;99.90
13998;DHT22;7074;51.508;7.018;2022-09-25T06:15:25;14.10;99.90
13998;DHT22;7074;51.508;7.018;2022-09-25T06:17:53;14.00;99.90
13998;DHT22;7074;51.508;7.018;2022-09-25T06:20:23;14.00;99.90
13998;DHT22;7074;51.508;7.018;2022-09-25T06:22:51;14.10;99.90
13998;DHT22;7074;51.508;7.018;2022-09-25T06:25:20;14.00;99.90
13998;DHT22;7074;51.508;7.018;2022-09-25T06:27:51;13.90;99.90
13998;DHT22;7074;51.508;7.018;2022-09-25T06:30:19;14.00;99.90
13998;DHT22;7074;51.508;7.018;2022-09-25T06:32:47;13.90;99.90
13998;DHT22;7074;51.508;7.018;2022-09-25T06:35:16;13.90;99.90
13998;DHT22;7074;51.508;7.018;2022-09-25T06:37:45;13.90;99.90
13998;DHT22;7074;51.508;7.018;2022-09-25T06:40:16;13.90;99.90
13998;DHT22;7074;51.508;7.018;2022-09-25T06:42:44;14.00;99.90
13998;DHT22;7074;51.508;7.018;2022-09-25T06:45:12;14.00;99.90
13998;DHT22;7074;51.508;7.018;2022-09-25T06:47:40;14.00;99.90
13998;DHT22;7074;51.508;7.018;2022-09-25T06:50:08;13.90;99.90
13998;DHT22;7074;51.508;7.018;2022-09-25T06:52:41;14.00;99.90
13998;DHT22;7074;51.508;7.018;2022-09-25T06:55:11;14.10;99.90
13998;DHT22;7074;51.508;7.018;2022-09-25T06:57:38;14.10;99.90
13998;DHT22;7074;51.508;7.018;2022-09-25T07:00:07;14.20;99.90
13998;DHT22;7074;51.508;7.018;2022-09-25T07:02:35;14.20;99.90
13998;DHT22;7074;51.508;7.018;2022-09-25T07:05:20;14.30;99.90
13998;DHT22;7074;51.508;7.018;2022-09-25T07:07:48;14.30;99.90
13998;DHT22;7074;51.508;7.018;2022-09-25T07:10:17;14.40;99.90
13998;DHT22;7074;51.508;7.018;2022-09-25T07:12:45;14.40;99.90
13998;DHT22;7074;51.508;7.018;2022-09-25T07:15:13;14.40;99.90
13998;DHT22;7074;51.508;7.018;2022-09-25T07:17:42;14.50;99.90
13998;DHT22;7074;51.508;7.018;2022-09-25T07:20:10;14.50;99.90
13998;DHT22;7074;51.508;7.018;2022-09-25T07:22:39;14.60;99.90
13998;DHT22;7074;51.508;7.018;2022-09-25T07:25:08;14.70;99.90
13998;DHT22;7074;51.508;7.018;2022-09-25T07:27:38;14.80;99.90
13998;DHT22;7074;51.508;7.018;2022-09-25T07:30:07;14.80;99.90
13998;DHT22;7074;51.508;7.018;2022-09-25T07:32:35;14.90;99.90
13998;DHT22;7074;51.508;7.018;2022-09-25T07:35:03;14.90;99.90
13998;DHT22;7074;51.508;7.018;2022-09-25T07:37:31;14.90;99.90
13998;DHT22;7074;51.508;7.018;2022-09-25T07:40:00;14.90;99.90
13998;DHT22;7074;51.508;7.018;2022-09-25T07:42:29;15.00;99.90
13998;DHT22;7074;51.508;7.018;2022-09-25T07:44:58;15.00;99.90
13998;DHT22;7074;51.508;7.018;2022-09-25T07:47:26;15.10;99.90
13998;DHT22;7074;51.508;7.018;2022-09-25T07:49:54;15.20;99.90
13998;DHT22;7074;51.508;7.018;2022-09-25T07:52:21;15.30;99.90
13998;DHT22;7074;51.508;7.018;2022-09-25T07:54:49;15.40;99.90
13998;DHT22;7074;51.508;7.018;2022-09-25T07:57:17;15.30;99.90
13998;DHT22;7074;51.508;7.018;2022-09-25T07:59:46;15.50;99.90
13998;DHT22;7074;51.508;7.018;2022-09-25T08:02:15;15.60;99.90
13998;DHT22;7074;51.508;7.018;2022-09-25T08:04:42;15.70;99.90
13998;DHT22;7074;51.508;7.018;2022-09-25T08:07:10;15.60;99.90
13998;DHT22;7074;51.508;7.018;2022-09-25T08:09:38;15.70;99.90
13998;DHT22;7074;51.508;7.018;2022-09-25T08:12:09;15.70;99.90
13998;DHT22;7074;51.508;7.018;2022-09-25T08:14:38;15.80;99.90
13998;DHT22;7074;51.508;7.018;2022-09-25T08:17:06;15.40;99.90
13998;DHT22;7074;51.508;7.018;2022-09-25T08:19:38;15.40;99.90
13998;DHT22;7074;51.508;7.018;2022-09-25T08:22:05;15.50;99.90
13998;DHT22;7074;51.508;7.018;2022-09-25T08:24:33;15.60;99.90
13998;DHT22;7074;51.508;7.018;2022-09-25T08:27:02;15.60;99.90
13998;DHT22;7074;51.508;7.018;2022-09-25T08:29:30;15.80;99.90
13998;DHT22;7074;51.508;7.018;2022-09-25T08:31:59;16.00;99.90
13998;DHT22;7074;51.508;7.018;2022-09-25T08:34:26;16.10;99.90
13998;DHT22;7074;51.508;7.018;2022-09-25T08:36:56;16.00;99.90
13998;DHT22;7074;51.508;7.018;2022-09-25T08:39:24;16.10;99.90
13998;DHT22;7074;51.508;7.018;2022-09-25T08:41:54;16.20;99.90
13998;DHT22;7074;51.508;7.018;2022-09-25T08:44:26;16.20;99.90
13998;DHT22;7074;51.508;7.018;2022-09-25T08:46:56;16.30;99.90
13998;DHT22;7074;51.508;7.018;2022-09-25T08:49:45;16.50;99.90
13998;DHT22;7074;51.508;7.018;2022-09-25T08:52:17;16.60;99.90
13998;DHT22;7074;51.508;7.018;2022-09-25T08:54:46;16.70;99.90
13998;DHT22;7074;51.508;7.018;2022-09-25T08:57:28;16.80;99.90
13998;DHT22;7074;51.508;7.018;2022-09-25T09:00:00;16.80;99.90
13998;DHT22;7074;51.508;7.018;2022-09-25T09:02:37;16.80;99.90
13998;DHT22;7074;51.508;7.018;2022-09-25T09:05:14;16.60;99.90
13998;DHT22;7074;51.508;7.018;2022-09-25T09:08:08;16.60;99.90
13998;DHT22;7074;51.508;7.018;2022-09-25T09:10:44;16.90;99.90
13998;DHT22;7074;51.508;7.018;2022-09-25T09:13:16;16.80;99.90
13998;DHT22;7074;51.508;7.018;2022-09-25T09:15:50;17.10;99.90
13998;DHT22;7074;51.508;7.018;2022-09-25T09:18:22;17.00;99.90
13998;DHT22;7074;51.508;7.018;2022-09-25T09:20:53;17.30;99.90
13998;DHT22;7074;51.508;7.018;2022-09-25T09:23:33;17.40;99.90
13998;DHT22;7074;51.508;7.018;2022-09-25T09:26:02;17.50;99.90
13998;DHT22;7074;51.508;7.018;2022-09-25T09:28:49;17.50;99.90
13998;DHT22;7074;51.508;7.018;2022-09-25T09:31:23;17.30;99.90
13998;DHT22;7074;51.508;7.018;2022-09-25T09:34:14;17.20;99.90
13998;DHT22;7074;51.508;7.018;2022-09-25T09:36:51;17.00;99.90
13998;DHT22;7074;51.508;7.018;2022-09-25T09:39:30;17.20;99.90
13998;DHT22;7074;51.508;7.018;2022-09-25T09:42:02;16.90;99.90
13998;DHT22;7074;51.508;7.018;2022-09-25T09:44:43;17.10;99.90
13998;DHT22;7074;51.508;7.018;2022-09-25T09:47:33;17.30;99.90
13998;DHT22;7074;51.508;7.018;2022-09-25T09:50:18;17.30;99.90
13998;DHT22;7074;51.508;7.018;2022-09-25T09:52:50;17.50;99.90
13998;DHT22;7074;51.508;7.018;2022-09-25T09:55:25;17.00;99.90
13998;DHT22;7074;51.508;7.018;2022-09-25T09:57:58;17.10;99.90
13998;DHT22;7074;51.508;7.018;2022-09-25T10:00:29;17.20;99.90
13998;DHT22;7074;51.508;7.018;2022-09-25T10:03:00;17.30;99.90
13998;DHT22;7074;51.508;7.018;2022-09-25T10:05:33;17.30;99.90
13998;DHT22;7074;51.508;7.018;2022-09-25T10:08:02;17.30;99.90
13998;DHT22;7074;51.508;7.018;2022-09-25T10:10:34;17.50;99.90
13998;DHT22;7074;51.508;7.018;2022-09-25T10:13:08;17.70;99.90
13998;DHT22;7074;51.508;7.018;2022-09-25T10:15:41;17.60;99.90
13998;DHT22;7074;51.508;7.018;2022-09-25T10:18:12;17.70;99.90
13998;DHT22;7074;51.508;7.018;2022-09-25T10:20:45;17.50;99.90
13998;DHT22;7074;51.508;7.018;2022-09-25T10:23:27;18.00;99.90
13998;DHT22;7074;51.508;7.018;2022-09-25T10:25:58;18.10;99.90
13998;DHT22;7074;51.508;7.018;2022-09-25T10:28:28;17.80;99.90
13998;DHT22;7074;51.508;7.018;2022-09-25T10:30:57;17.70;99.90
13998;DHT22;7074;51.508;7.018;2022-09-25T10:33:27;18.10;99.90
13998;DHT22;7074;51.508;7.018;2022-09-25T11:34:38;18.30;99.90
13998;DHT22;7074;51.508;7.018;2022-09-25T11:37:17;18.40;99.90
13998;DHT22;7074;51.508;7.018;2022-09-25T11:39:47;18.60;99.90
13998;DHT22;7074;51.508;7.018;2022-09-25T11:42:37;18.70;99.90
13998;DHT22;7074;51.508;7.018;2022-09-25T11:45:15;18.90;99.90
13998;DHT22;7074;51.508;7.018;2022-09-25T11:47:52;19.00;99.90
13998;DHT22;7074;51.508;7.018;2022-09-25T11:50:35;19.10;99.90
13998;DHT22;7074;51.508;7.018;2022-09-25T11:53:13;19.10;99.80
13998;DHT22;7074;51.508;7.018;2022-09-25T11:58:57;19.10;99.60
13998;DHT22;7074;51.508;7.018;2022-09-25T12:01:31;19.20;99.80
13998;DHT22;7074;51.508;7.018;2022-09-25T12:04:29;18.60;99.30
13998;DHT22;7074;51.508;7.018;2022-09-25T12:07:28;18.60;98.90
13998;DHT22;7074;51.508;7.018;2022-09-25T12:10:22;18.40;99.40
13998;DHT22;7074;51.508;7.018;2022-09-25T12:13:00;18.70;99.30
13998;DHT22;7074;51.508;7.018;2022-09-25T12:15:42;18.60;98.00
13998;DHT22;7074;51.508;7.018;2022-09-25T12:18:20;19.00;97.60
13998;DHT22;7074;51.508;7.018;2022-09-25T12:21:24;19.30;97.50
13998;DHT22;7074;51.508;7.018;2022-09-25T12:24:59;19.50;97.00
13998;DHT22;7074;51.508;7.018;2022-09-25T12:28:09;19.60;96.90
13998;DHT22;7074;51.508;7.018;2022-09-25T12:31:51;19.80;96.70
13998;DHT22;7074;51.508;7.018;2022-09-25T12:35:02;19.60;96.20
13998;DHT22;7074;51.508;7.018;2022-09-25T12:37:57;19.00;96.90
13998;DHT22;7074;51.508;7.018;2022-09-25T13:14:41;18.90;96.20
13998;DHT22;7074;51.508;7.018;2022-09-25T13:17:11;19.10;95.00
13998;DHT22;7074;51.508;7.018;2022-09-25T13:19:41;19.00;94.10
13998;DHT22;7074;51.508;7.018;2022-09-25T13:22:12;19.10;95.30
13998;DHT22;7074;51.508;7.018;2022-09-25T13:24:43;19.40;93.50
13998;DHT22;7074;51.508;7.018;2022-09-25T13:27:15;19.70;93.70
13998;DHT22;7074;51.508;7.018;2022-09-25T13:29:56;19.90;93.40
13998;DHT22;7074;51.508;7.018;2022-09-25T13:32:26;19.90;92.90
13998;DHT22;7074;51.508;7.018;2022-09-25T13:35:01;20.10;92.00
13998;DHT22;7074;51.508;7.018;2022-09-25T13:37:32;20.10;92.00
13998;DHT22;7074;51.508;7.018;2022-09-25T13:40:06;20.10;91.00
13998;DHT22;7074;51.508;7.018;2022-09-25T13:42:53;19.90;90.60
13998;DHT22;7074;51.508;7.018;2022-09-25T13:45:42;19.80;91.80
13998;DHT22;7074;51.508;7.018;2022-09-25T13:48:11;19.50;91.10
13998;DHT22;7074;51.508;7.018;2022-09-25T13:50:42;19.50;91.70
13998;DHT22;7074;51.508;7.018;2022-09-25T13:53:51;19.40;91.10
13998;DHT22;7074;51.508;7.018;2022-09-25T13:56:27;19.00;89.70
13998;DHT22;7074;51.508;7.018;2022-09-25T14:04:45;19.00;90.80
13998;DHT22;7074;51.508;7.018;2022-09-25T14:07:23;19.00;90.90
13998;DHT22;7074;51.508;7.018;2022-09-25T14:09:56;18.80;91.10
13998;DHT22;7074;51.508;7.018;2022-09-25T14:15:19;19.00;92.20
13998;DHT22;7074;51.508;7.018;2022-09-25T14:17:51;19.00;93.30
13998;DHT22;7074;51.508;7.018;2022-09-25T14:20:33;19.10;94.00
13998;DHT22;7074;51.508;7.018;2022-09-25T14:23:10;19.00;93.80
13998;DHT22;7074;51.508;7.018;2022-09-25T14:25:40;19.00;94.60
13998;DHT22;7074;51.508;7.018;2022-09-25T14:28:23;18.80;94.80
13998;DHT22;7074;51.508;7.018;2022-09-25T14:31:00;18.80;94.90
13998;DHT22;7074;51.508;7.018;2022-09-25T14:33:47;18.80;94.30
13998;DHT22;7074;51.508;7.018;2022-09-25T14:36:24;18.80;95.00
13998;DHT22;7074;51.508;7.018;2022-09-25T14:39:18;18.80;95.90
13998;DHT22;7074;51.508;7.018;2022-09-25T14:42:17;18.80;96.10
13998;DHT22;7074;51.508;7.018;2022-09-25T14:47:57;18.70;96.30
13998;DHT22;7074;51.508;7.018;2022-09-25T14:50:30;18.70;97.00
13998;DHT22;7074;51.508;7.018;2022-09-25T14:53:03;18.70;97.30
13998;DHT22;7074;51.508;7.018;2022-09-25T14:55:35;18.70;96.90
13998;DHT22;7074;51.508;7.018;2022-09-25T14:58:07;18.60;97.60
13998;DHT22;7074;51.508;7.018;2022-09-25T15:00:44;18.60;97.70
13998;DHT22;7074;51.508;7.018;2022-09-25T15:03:15;18.60;97.60
13998;DHT22;7074;51.508;7.018;2022-09-25T15:05:46;18.70;97.70
13998;DHT22;7074;51.508;7.018;2022-09-25T15:08:20;18.70;97.70
13998;DHT22;7074;51.508;7.018;2022-09-25T15:10:59;18.70;97.80
13998;DHT22;7074;51.508;7.018;2022-09-25T15:13:27;18.70;97.90
13998;DHT22;7074;51.508;7.018;2022-09-25T15:15:59;18.50;96.90
13998;DHT22;7074;51.508;7.018;2022-09-25T15:18:47;18.50;97.80
13998;DHT22;7074;51.508;7.018;2022-09-25T15:21:23;18.50;98.40
13998;DHT22;7074;51.508;7.018;2022-09-25T15:23:52;18.50;98.50
13998;DHT22;7074;51.508;7.018;2022-09-25T15:26:21;18.50;98.40
13998;DHT22;7074;51.508;7.018;2022-09-25T15:28:49;18.50;98.70
13998;DHT22;7074;51.508;7.018;2022-09-25T15:31:17;18.50;98.40
13998;DHT22;7074;51.508;7.018;2022-09-25T15:34:01;18.50;98.70
13998;DHT22;7074;51.508;7.018;2022-09-25T15:36:33;18.50;98.50
13998;DHT22;7074;51.508;7.018;2022-09-25T15:39:11;18.50;98.70
13998;DHT22;7074;51.508;7.018;2022-09-25T15:41:41;18.50;98.60
13998;DHT22;7074;51.508;7.018;2022-09-25T15:44:17;18.50;99.00
13998;DHT22;7074;51.508;7.018;2022-09-25T15:46:47;18.50;99.00
13998;DHT22;7074;51.508;7.018;2022-09-25T15:49:17;18.50;98.90
13998;DHT22;7074;51.508;7.018;2022-09-25T15:51:55;18.50;98.70
13998;DHT22;7074;51.508;7.018;2022-09-25T15:54:34;18.50;98.50
13998;DHT22;7074;51.508;7.018;2022-09-25T15:57:06;18.30;98.60
13998;DHT22;7074;51.508;7.018;2022-09-25T15:59:38;18.30;98.80
13998;DHT22;7074;51.508;7.018;2022-09-25T16:02:33;18.30;98.80
13998;DHT22;7074;51.508;7.018;2022-09-25T16:05:22;18.20;99.10
13998;DHT22;7074;51.508;7.018;2022-09-25T16:08:23;18.20;99.20
13998;DHT22;7074;51.508;7.018;2022-09-25T16:11:04;18.20;99.00
13998;DHT22;7074;51.508;7.018;2022-09-25T16:13:32;18.10;98.70
13998;DHT22;7074;51.508;7.018;2022-09-25T16:16:01;18.00;99.10
13998;DHT22;7074;51.508;7.018;2022-09-25T16:18:34;18.00;99.40
13998;DHT22;7074;51.508;7.018;2022-09-25T16:21:24;17.90;99.90
13998;DHT22;7074;51.508;7.018;2022-09-25T16:24:00;17.80;99.90
13998;DHT22;7074;51.508;7.018;2022-09-25T16:26:35;17.70;99.90
13998;DHT22;7074;51.508;7.018;2022-09-25T16:29:12;17.70;99.90
13998;DHT22;7074;51.508;7.018;2022-09-25T16:31:42;17.70;99.90
13998;DHT22;7074;51.508;7.018;2022-09-25T16:34:17;17.50;99.90
13998;DHT22;7074;51.508;7.018;2022-09-25T16:36:48;17.50;99.90
13998;DHT22;7074;51.508;7.018;2022-09-25T16:39:27;17.50;99.90
13998;DHT22;7074;51.508;7.018;2022-09-25T16:41:55;17.40;99.90
13998;DHT22;7074;51.508;7.018;2022-09-25T16:44:37;17.30;99.90
13998;DHT22;7074;51.508;7.018;2022-09-25T16:47:14;17.40;99.90
13998;DHT22;7074;51.508;7.018;2022-09-25T16:49:43;17.40;99.90
13998;DHT22;7074;51.508;7.018;2022-09-25T16:52:16;17.30;99.90
13998;DHT22;7074;51.508;7.018;2022-09-25T16:54:48;17.30;99.90
13998;DHT22;7074;51.508;7.018;2022-09-25T16:57:19;17.30;99.90
13998;DHT22;7074;51.508;7.018;2022-09-25T16:59:47;17.20;99.90
13998;DHT22;7074;51.508;7.018;2022-09-25T17:02:25;17.20;99.90
13998;DHT22;7074;51.508;7.018;2022-09-25T17:05:00;17.10;99.90
13998;DHT22;7074;51.508;7.018;2022-09-25T17:07:28;17.20;99.90
13998;DHT22;7074;51.508;7.018;2022-09-25T17:09:58;17.20;99.90
13998;DHT22;7074;51.508;7.018;2022-09-25T17:12:27;17.10;99.90
13998;DHT22;7074;51.508;7.018;2022-09-25T17:14:56;17.10;99.90
13998;DHT22;7074;51.508;7.018;2022-09-25T17:17:24;17.10;99.90
13998;DHT22;7074;51.508;7.018;2022-09-25T17:19:54;17.10;99.90
13998;DHT22;7074;51.508;7.018;2022-09-25T17:22:22;17.10;99.90
13998;DHT22;7074;51.508;7.018;2022-09-25T17:25:00;17.00;99.90
13998;DHT22;7074;51.508;7.018;2022-09-25T17:27:29;17.00;99.90
13998;DHT22;7074;51.508;7.018;2022-09-25T17:29:57;17.00;99.90
13998;DHT22;7074;51.508;7.018;2022-09-25T17:32:25;17.00;99.90
13998;DHT22;7074;51.508;7.018;2022-09-25T17:34:54;17.00;99.90
13998;DHT22;7074;51.508;7.018;2022-09-25T17:37:23;17.00;99.90
13998;DHT22;7074;51.508;7.018;2022-09-25T17:39:50;17.00;99.90
13998;DHT22;7074;51.508;7.018;2022-09-25T17:42:20;17.00;99.90
13998;DHT22;7074;51.508;7.018;2022-09-25T17:44:48;16.90;99.90
13998;DHT22;7074;51.508;7.018;2022-09-25T17:47:16;16.90;99.90
13998;DHT22;7074;51.508;7.018;2022-09-25T17:49:46;16.90;99.90
13998;DHT22;7074;51.508;7.018;2022-09-25T17:52:15;16.80;99.90
13998;DHT22;7074;51.508;7.018;2022-09-25T17:54:46;16.80;99.90
13998;DHT22;7074;51.508;7.018;2022-09-25T17:57:14;16.80;99.90
13998;DHT22;7074;51.508;7.018;2022-09-25T17:59:43;16.80;99.90
13998;DHT22;7074;51.508;7.018;2022-09-25T18:02:13;16.80;99.90
13998;DHT22;7074;51.508;7.018;2022-09-25T18:04:42;16.70;99.90
13998;DHT22;7074;51.508;7.018;2022-09-25T18:07:10;16.80;99.90
13998;DHT22;7074;51.508;7.018;2022-09-25T18:09:38;16.80;99.90
13998;DHT22;7074;51.508;7.018;2022-09-25T18:12:06;16.80;99.90